Time;durP1;ratioP1;P1;durP2;ratioP2;P2;SDS_P1;SDS_P2;PMS_P1;PMS_P2;Temp;Humidity;BMP_temperature;BMP_pressure;BME280_temperature;BME280_humidity;BME280_pressure;Samples;Min_cycle;Max_cycle;Signal;HPM_P1;HPM_P2
2022/05/30 00:00:25;;;;;;;6.28;3.42;;;8.10;97.10;;;;;;5049149;28;20032;-72
2022/05/30 00:02:51;;;;;;;5.10;3.40;;;8.10;97.40;;;;;;5031253;28;20055;-72
2022/05/30 00:05:19;;;;;;;4.70;2.78;;;8.00;97.50;;;;;;5031051;28;20032;-75
2022/05/30 00:07:45;;;;;;;4.47;2.85;;;8.00;97.20;;;;;;5047812;28;20040;-73
2022/05/30 00:10:12;;;;;;;5.78;2.47;;;7.90;96.90;;;;;;5049080;28;20025;-72
2022/05/30 00:12:38;;;;;;;5.45;2.80;;;7.80;96.90;;;;;;5051312;28;20502;-71
2022/05/30 00:15:06;;;;;;;5.63;3.00;;;7.70;97.00;;;;;;5049084;28;20024;-72
2022/05/30 00:17:32;;;;;;;5.45;2.95;;;7.60;97.30;;;;;;5047368;28;20577;-73
2022/05/30 00:19:57;;;;;;;4.82;2.88;;;7.70;97.70;;;;;;5049011;28;20056;-74
2022/05/30 00:22:23;;;;;;;5.32;3.10;;;7.60;97.90;;;;;;5031013;28;20047;-71
2022/05/30 00:24:49;;;;;;;6.97;3.45;;;7.60;97.90;;;;;;5048949;28;20040;-74
2022/05/30 00:27:15;;;;;;;5.38;3.47;;;7.60;97.80;;;;;;5030717;28;20123;-71
2022/05/30 00:29:42;;;;;;;4.95;3.20;;;7.60;97.60;;;;;;5030619;28;20127;-73
2022/05/30 00:32:08;;;;;;;5.60;2.92;;;7.50;97.60;;;;;;5030499;28;20041;-72
2022/05/30 00:34:36;;;;;;;8.68;3.80;;;7.30;97.50;;;;;;5048807;28;20120;-73
2022/05/30 00:37:02;;;;;;;6.30;3.90;;;7.30;97.50;;;;;;5048855;28;20510;-72
2022/05/30 00:39:29;;;;;;;6.72;3.63;;;7.10;97.70;;;;;;5048475;28;20495;-73
2022/05/30 00:42:31;;;;;;;6.28;3.90;;;7.00;98.00;;;;;;5048363;28;20025;-73
2022/05/30 00:44:57;;;;;;;6.03;3.10;;;6.90;98.00;;;;;;4986400;28;20061;-72
2022/05/30 00:47:25;;;;;;;6.50;4.30;;;6.80;98.50;;;;;;4970138;28;20048;-73
2022/05/30 00:49:51;;;;;;;6.43;4.15;;;6.80;98.30;;;;;;4986344;28;20069;-73
2022/05/30 00:52:22;;;;;;;5.82;3.45;;;6.70;98.70;;;;;;4986239;28;20397;-74
2022/05/30 00:54:52;;;;;;;6.38;3.80;;;6.80;98.90;;;;;;4985546;28;20334;-72
2022/05/30 00:57:23;;;;;;;6.03;3.55;;;6.80;98.90;;;;;;4970534;28;20022;-73
2022/05/30 01:00:03;;;;;;;;;;;6.80;98.70;;;;;;4973064;28;20035;-71
2022/05/30 01:02:33;;;;;;;10.95;4.28;;;6.80;98.40;;;;;;4988417;28;19920;-71
2022/05/30 01:07:46;;;;;;;5.95;3.92;;;6.80;98.90;;;;;;4988074;28;20049;-71
2022/05/30 01:10:17;;;;;;;5.55;3.40;;;6.80;99.10;;;;;;4988009;28;20038;-72
2022/05/30 01:12:49;;;;;;;7.40;3.70;;;6.90;99.20;;;;;;4984614;28;20110;-71
2022/05/30 01:15:17;;;;;;;7.35;3.97;;;7.00;99.20;;;;;;4967209;28;20818;-73
2022/05/30 01:18:07;;;;;;;6.43;3.30;;;7.10;99.00;;;;;;4966622;28;20046;-73
2022/05/30 01:21:15;;;;;;;8.73;4.38;;;7.20;98.70;;;;;;5028456;28;20765;-73
2022/05/30 01:24:14;;;;;;;6.97;3.80;;;7.20;98.50;;;;;;5027962;28;20033;-72
2022/05/30 01:26:45;;;;;;;8.27;4.72;;;7.20;98.50;;;;;;5028350;28;20558;-73
2022/05/30 01:29:29;;;;;;;6.70;4.13;;;7.20;98.90;;;;;;5026846;28;20036;-71
2022/05/30 01:31:55;;;;;;;6.80;4.30;;;7.20;99.00;;;;;;5026736;28;20025;-73
2022/05/30 01:34:23;;;;;;;8.18;5.00;;;7.20;98.70;;;;;;5027716;28;20491;-72
2022/05/30 01:36:49;;;;;;;9.13;5.13;;;7.20;98.60;;;;;;5027904;28;20033;-71
2022/05/30 01:39:15;;;;;;;6.60;4.90;;;7.20;98.70;;;;;;5027899;28;20381;-71
2022/05/30 01:41:41;;;;;;;7.68;4.78;;;7.10;99.10;;;;;;5028191;28;20037;-75
2022/05/30 01:44:06;;;;;;;7.78;4.43;;;7.10;98.70;;;;;;5030853;28;20168;-73
2022/05/30 01:46:32;;;;;;;10.52;5.47;;;7.10;98.50;;;;;;5031704;28;20383;-73
2022/05/30 01:48:59;;;;;;;7.28;5.30;;;7.00;98.60;;;;;;5031465;28;20029;-73
2022/05/30 01:51:25;;;;;;;8.90;4.80;;;7.00;98.90;;;;;;5031992;28;20104;-73
2022/05/30 01:53:52;;;;;;;6.88;4.60;;;7.00;99.00;;;;;;5031526;28;20056;-72
2022/05/30 01:56:19;;;;;;;7.28;5.00;;;7.00;99.00;;;;;;5031702;28;20025;-74
2022/05/30 01:58:44;;;;;;;7.50;4.90;;;7.00;99.00;;;;;;5031642;28;20024;-72
2022/05/30 02:01:22;;;;;;;7.60;5.03;;;7.00;99.00;;;;;;5013564;28;20033;-72
2022/05/30 02:03:49;;;;;;;7.68;4.68;;;6.90;99.10;;;;;;5031428;28;20037;-74
2022/05/30 02:06:16;;;;;;;7.75;4.78;;;7.00;99.30;;;;;;5031739;28;20083;-74
2022/05/30 02:08:42;;;;;;;8.63;5.50;;;7.00;98.90;;;;;;5031428;28;20030;-71
2022/05/30 02:11:08;;;;;;;8.40;5.28;;;7.00;98.90;;;;;;5031607;28;20037;-72
2022/05/30 02:13:35;;;;;;;7.20;4.85;;;7.00;98.90;;;;;;5029950;28;20053;-73
2022/05/30 02:18:50;;;;;;;8.27;5.15;;;7.00;99.00;;;;;;5051542;28;20036;-74
2022/05/30 02:21:16;;;;;;;8.15;4.28;;;7.00;99.10;;;;;;5051247;28;20033;-73
2022/05/30 02:23:42;;;;;;;7.55;4.68;;;7.10;99.10;;;;;;5050800;28;20037;-74
2022/05/30 02:26:08;;;;;;;10.20;5.10;;;7.10;99.00;;;;;;5032932;28;20035;-73
2022/05/30 02:28:34;;;;;;;7.15;4.68;;;7.10;99.00;;;;;;5050960;28;20103;-73
2022/05/30 02:30:59;;;;;;;7.50;4.35;;;7.10;98.90;;;;;;5050873;28;20044;-73
2022/05/30 02:38:54;;;;;;;7.18;4.38;;;7.20;98.60;;;;;;5050604;28;20087;-71
2022/05/30 02:41:19;;;;;;;8.23;4.88;;;7.10;98.70;;;;;;5050581;28;20037;-74
2022/05/30 02:43:46;;;;;;;7.57;4.75;;;7.00;98.60;;;;;;5032564;28;20536;-71
2022/05/30 02:46:12;;;;;;;7.13;4.63;;;7.00;98.80;;;;;;5050761;28;20048;-72
2022/05/30 02:48:38;;;;;;;6.85;4.00;;;6.90;98.80;;;;;;5050573;28;20501;-71
2022/05/30 02:51:03;;;;;;;7.25;4.85;;;6.90;98.80;;;;;;5050466;28;20028;-71
2022/05/30 02:53:29;;;;;;;7.53;4.85;;;6.90;98.70;;;;;;5032387;28;20099;-71
2022/05/30 02:55:56;;;;;;;7.60;4.85;;;6.80;98.40;;;;;;5049550;28;20441;-73
2022/05/30 02:58:21;;;;;;;8.23;5.30;;;6.70;98.50;;;;;;5050504;28;20479;-72
2022/05/30 03:00:47;;;;;;;6.10;4.10;;;6.70;98.70;;;;;;5050432;28;20094;-71
2022/05/30 03:03:12;;;;;;;8.13;4.85;;;6.50;98.90;;;;;;5050266;28;20033;-72
2022/05/30 03:05:38;;;;;;;9.43;5.10;;;6.50;99.10;;;;;;5032630;28;20067;-71
2022/05/30 03:08:06;;;;;;;7.13;5.00;;;6.50;99.30;;;;;;5029926;28;20592;-74
2022/05/30 03:10:31;;;;;;;7.07;4.47;;;6.50;99.50;;;;;;5028636;28;20034;-72
2022/05/30 03:12:57;;;;;;;7.28;3.92;;;6.50;99.60;;;;;;5028618;28;20047;-74
2022/05/30 03:15:22;;;;;;;6.25;4.03;;;6.60;99.50;;;;;;5045948;28;20037;-71
2022/05/30 03:17:51;;;;;;;8.00;4.80;;;6.60;99.40;;;;;;5050155;28;20044;-72
2022/05/30 03:20:17;;;;;;;6.32;4.43;;;6.70;99.30;;;;;;5049874;28;20121;-75
2022/05/30 03:22:43;;;;;;;7.85;4.78;;;6.70;99.40;;;;;;5049832;28;20037;-73
2022/05/30 03:25:09;;;;;;;7.30;4.20;;;6.70;99.00;;;;;;5049880;28;20039;-74
2022/05/30 03:27:35;;;;;;;6.88;4.38;;;6.60;98.20;;;;;;5048677;28;20032;-72
2022/05/30 03:30:01;;;;;;;8.10;4.30;;;6.50;98.20;;;;;;5049587;28;20032;-71
2022/05/30 03:32:26;;;;;;;6.40;4.10;;;6.40;98.10;;;;;;5049510;28;20048;-73
2022/05/30 03:34:52;;;;;;;6.88;4.15;;;6.20;98.30;;;;;;5049379;28;20033;-73
2022/05/30 03:37:18;;;;;;;7.57;4.88;;;6.10;98.20;;;;;;5049744;28;20027;-74
2022/05/30 03:39:44;;;;;;;6.55;4.68;;;6.00;98.40;;;;;;5047972;28;20049;-72
2022/05/30 03:42:13;;;;;;;8.45;5.47;;;5.90;98.70;;;;;;5049372;28;20044;-74
2022/05/30 03:44:40;;;;;;;11.23;6.20;;;5.80;98.80;;;;;;5049670;28;20029;-73
2022/05/30 03:47:06;;;;;;;9.82;6.32;;;5.70;99.40;;;;;;5049621;28;20029;-71
2022/05/30 03:49:31;;;;;;;11.27;5.72;;;5.70;99.90;;;;;;5047864;28;20410;-72
2022/05/30 03:51:58;;;;;;;8.00;4.75;;;5.70;99.60;;;;;;5047798;28;20033;-72
2022/05/30 03:54:25;;;;;;;7.70;4.68;;;5.60;99.60;;;;;;5048199;28;20040;-72
2022/05/30 03:56:50;;;;;;;7.18;5.07;;;5.60;99.80;;;;;;5047950;28;20450;-75
2022/05/30 03:59:16;;;;;;;6.97;4.85;;;5.60;99.90;;;;;;5049273;28;20032;-71
2022/05/30 04:01:42;;;;;;;6.60;4.57;;;5.70;99.90;;;;;;5049145;28;20028;-72
2022/05/30 04:04:08;;;;;;;8.43;4.93;;;5.80;99.90;;;;;;5041237;28;20036;-72
2022/05/30 04:06:34;;;;;;;8.55;4.80;;;5.80;99.90;;;;;;5028601;28;20033;-73
2022/05/30 04:08:59;;;;;;;11.07;5.20;;;5.90;99.90;;;;;;5027673;28;20045;-73
2022/05/30 04:11:25;;;;;;;7.60;5.38;;;5.90;99.90;;;;;;5029057;28;20029;-72
2022/05/30 04:13:51;;;;;;;9.68;5.95;;;5.90;99.90;;;;;;5028713;28;20123;-72
2022/05/30 04:16:16;;;;;;;9.27;5.95;;;6.00;99.80;;;;;;5029021;28;20044;-74
2022/05/30 04:18:43;;;;;;;8.88;5.57;;;5.90;99.40;;;;;;5027382;28;20064;-73
2022/05/30 04:21:11;;;;;;;8.50;5.05;;;5.90;99.70;;;;;;5029092;28;20075;-71
2022/05/30 04:23:39;;;;;;;7.95;5.03;;;5.90;99.80;;;;;;5037656;28;20391;-72
2022/05/30 04:26:06;;;;;;;9.30;5.25;;;5.90;99.60;;;;;;5049023;28;20041;-72
2022/05/30 04:28:32;;;;;;;8.07;5.65;;;5.90;99.40;;;;;;5030800;28;20170;-73
2022/05/30 04:30:58;;;;;;;7.97;5.18;;;5.90;99.30;;;;;;5048669;28;20037;-71
2022/05/30 04:33:23;;;;;;;9.48;5.82;;;5.90;99.40;;;;;;5048335;28;20390;-71
2022/05/30 04:35:49;;;;;;;9.02;6.07;;;5.90;99.50;;;;;;5048501;28;20041;-73
2022/05/30 04:38:15;;;;;;;8.98;6.03;;;5.90;99.20;;;;;;5030693;28;20152;-73
2022/05/30 04:40:40;;;;;;;9.05;5.38;;;5.90;98.80;;;;;;5048829;28;20507;-72
2022/05/30 04:43:06;;;;;;;8.55;5.60;;;5.80;98.70;;;;;;5048780;28;20048;-73
2022/05/30 04:45:31;;;;;;;9.95;6.00;;;5.70;98.90;;;;;;5048553;28;20035;-73
2022/05/30 04:47:57;;;;;;;10.05;6.55;;;5.70;99.20;;;;;;5030308;28;20029;-71
2022/05/30 04:50:23;;;;;;;10.02;6.88;;;5.80;99.50;;;;;;5048405;28;20024;-72
2022/05/30 04:52:48;;;;;;;8.43;6.22;;;5.80;99.60;;;;;;5048589;28;20124;-70
2022/05/30 04:55:15;;;;;;;8.68;4.72;;;5.80;99.70;;;;;;5048523;28;20045;-74
2022/05/30 04:57:46;;;;;;;8.93;5.72;;;5.80;99.40;;;;;;5030372;28;20028;-74
2022/05/30 05:00:14;;;;;;;9.07;5.85;;;5.70;99.10;;;;;;5048567;28;20024;-70
2022/05/30 05:02:40;;;;;;;9.75;5.93;;;5.70;99.50;;;;;;5048132;28;20423;-73
2022/05/30 05:05:07;;;;;;;7.88;5.93;;;5.80;99.90;;;;;;5048299;28;20510;-72
2022/05/30 05:08:00;;;;;;;8.75;6.03;;;5.80;99.90;;;;;;5048649;28;20037;-75
2022/05/30 05:11:14;;;;;;;7.05;4.68;;;5.90;99.90;;;;;;4969745;28;20420;-70
2022/05/30 05:13:40;;;;;;;7.35;4.65;;;6.00;99.90;;;;;;4982863;28;20081;-71
2022/05/30 05:16:06;;;;;;;9.25;5.40;;;6.30;99.90;;;;;;4969487;28;20427;-71
2022/05/30 05:18:32;;;;;;;10.43;6.03;;;6.30;99.90;;;;;;4984447;28;20035;-72
2022/05/30 05:20:57;;;;;;;7.50;5.03;;;6.50;99.90;;;;;;4970742;28;20566;-75
2022/05/30 05:23:23;;;;;;;7.43;4.65;;;6.60;99.90;;;;;;4970924;28;20042;-71
2022/05/30 05:25:48;;;;;;;8.23;4.68;;;6.70;99.90;;;;;;4970572;28;20094;-71
2022/05/30 05:28:14;;;;;;;8.13;5.57;;;6.80;99.90;;;;;;4970663;28;20039;-70
2022/05/30 05:30:42;;;;;;;8.02;5.07;;;6.90;99.70;;;;;;4954080;28;20030;-72
2022/05/30 05:33:08;;;;;;;8.02;4.88;;;7.00;99.50;;;;;;4954185;28;20038;-74
2022/05/30 05:35:34;;;;;;;9.35;5.43;;;7.10;99.50;;;;;;4970354;28;20050;-73
2022/05/30 05:38:00;;;;;;;8.75;5.38;;;7.10;99.30;;;;;;4970357;28;20378;-72
2022/05/30 05:40:28;;;;;;;7.88;5.45;;;7.00;99.20;;;;;;4986264;28;20125;-71
2022/05/30 05:42:54;;;;;;;7.05;5.60;;;7.00;99.10;;;;;;4970432;28;20059;-72
2022/05/30 05:45:20;;;;;;;8.93;4.90;;;7.00;99.10;;;;;;4988720;28;20026;-71
2022/05/30 05:47:45;;;;;;;6.22;4.25;;;7.00;99.10;;;;;;5029935;28;20098;-73
2022/05/30 05:50:11;;;;;;;9.15;5.18;;;7.00;99.20;;;;;;5033763;28;20132;-71
2022/05/30 05:52:37;;;;;;;7.53;4.97;;;7.10;99.20;;;;;;5051670;28;20056;-72
2022/05/30 05:55:03;;;;;;;8.75;4.78;;;7.00;99.30;;;;;;5052197;28;20033;-71
2022/05/30 05:57:29;;;;;;;8.70;5.18;;;7.10;99.20;;;;;;5051643;28;20041;-72
2022/05/30 05:59:54;;;;;;;8.55;5.40;;;7.10;99.30;;;;;;5051487;28;20029;-72
2022/05/30 06:02:22;;;;;;;8.75;5.90;;;7.10;99.50;;;;;;5033839;28;20083;-72
2022/05/30 06:04:51;;;;;;;8.90;5.70;;;7.20;99.90;;;;;;5051693;28;20049;-72
2022/05/30 06:07:18;;;;;;;7.40;5.50;;;7.20;99.90;;;;;;5033383;28;20060;-72
2022/05/30 06:09:43;;;;;;;6.63;4.35;;;7.40;99.90;;;;;;5033230;28;20029;-71
2022/05/30 06:12:09;;;;;;;8.25;4.68;;;7.40;99.90;;;;;;5051266;28;20116;-71
2022/05/30 06:14:36;;;;;;;5.95;4.07;;;7.50;99.90;;;;;;5050953;28;20041;-72
2022/05/30 06:17:02;;;;;;;6.00;3.88;;;7.70;99.90;;;;;;5051248;28;20499;-71
2022/05/30 06:19:27;;;;;;;8.02;4.07;;;7.70;99.80;;;;;;5033245;28;20056;-74
2022/05/30 06:21:53;;;;;;;9.93;4.70;;;7.80;99.90;;;;;;5051222;28;20496;-72
2022/05/30 06:24:19;;;;;;;9.63;4.68;;;7.90;99.80;;;;;;5050891;28;20691;-72
2022/05/30 06:26:44;;;;;;;7.78;4.22;;;8.10;99.70;;;;;;5053655;28;20714;-74
2022/05/30 06:29:14;;;;;;;7.95;4.60;;;8.20;99.50;;;;;;5051081;28;20040;-75
2022/05/30 06:31:40;;;;;;;7.35;4.25;;;8.30;99.70;;;;;;5033044;28;20029;-73
2022/05/30 06:34:06;;;;;;;5.95;3.38;;;8.50;99.60;;;;;;5050781;28;20140;-74
2022/05/30 06:36:33;;;;;;;7.55;3.60;;;8.70;99.10;;;;;;5050746;28;20029;-72
2022/05/30 06:38:58;;;;;;;8.02;4.30;;;8.80;98.80;;;;;;5032875;28;20036;-71
2022/05/30 06:41:30;;;;;;;7.82;4.00;;;8.90;98.90;;;;;;5050938;28;20045;-71
2022/05/30 06:44:02;;;;;;;6.43;3.47;;;9.10;99.10;;;;;;5050627;28;20060;-73
2022/05/30 06:46:28;;;;;;;7.13;3.10;;;9.30;98.50;;;;;;5050800;28;20079;-71
2022/05/30 06:48:56;;;;;;;6.10;2.92;;;9.40;98.40;;;;;;5050865;28;20025;-72
2022/05/30 06:51:23;;;;;;;6.53;2.55;;;9.60;97.70;;;;;;5050797;28;20041;-71
2022/05/30 06:53:49;;;;;;;6.47;3.33;;;9.70;97.60;;;;;;5050564;28;20033;-72
2022/05/30 06:56:21;;;;;;;6.05;2.33;;;9.80;97.20;;;;;;5032769;28;20451;-73
2022/05/30 06:58:50;;;;;;;7.35;2.90;;;9.90;96.60;;;;;;5050536;28;20036;-72
2022/05/30 07:01:17;;;;;;;5.95;2.75;;;10.00;96.70;;;;;;5050442;28;20540;-75
2022/05/30 07:03:46;;;;;;;6.45;2.33;;;10.10;96.60;;;;;;5032492;28;20052;-72
2022/05/30 07:06:16;;;;;;;6.72;2.10;;;10.20;96.10;;;;;;5050824;28;20029;-71
2022/05/30 07:08:45;;;;;;;7.10;2.10;;;10.40;95.40;;;;;;5050956;28;20471;-71
2022/05/30 07:11:15;;;;;;;6.20;2.05;;;10.60;94.80;;;;;;5033249;28;20534;-72
2022/05/30 07:13:42;;;;;;;3.80;1.58;;;10.80;94.40;;;;;;5033496;28;20430;-75
2022/05/30 07:16:09;;;;;;;5.57;1.90;;;11.00;94.00;;;;;;5033076;28;20100;-72
2022/05/30 07:18:35;;;;;;;5.65;1.73;;;11.30;93.80;;;;;;5051102;28;20064;-72
2022/05/30 07:21:04;;;;;;;6.28;1.13;;;11.50;91.90;;;;;;5033101;28;20147;-73
2022/05/30 07:23:31;;;;;;;5.80;1.55;;;11.70;91.70;;;;;;5032517;28;20487;-72
2022/05/30 07:25:59;;;;;;;3.55;0.98;;;11.90;91.10;;;;;;5033003;28;20037;-71
2022/05/30 07:28:28;;;;;;;6.53;1.70;;;12.10;91.30;;;;;;5032029;28;20029;-71
2022/05/30 07:31:04;;;;;;;6.15;1.40;;;12.20;91.80;;;;;;5049841;28;20132;-73
2022/05/30 07:33:31;;;;;;;7.45;1.40;;;12.30;91.10;;;;;;5049857;28;20037;-72
2022/05/30 07:35:57;;;;;;;4.80;1.10;;;12.40;90.20;;;;;;5049726;28;20761;-72
2022/05/30 07:38:22;;;;;;;4.85;1.20;;;12.40;90.00;;;;;;5049774;28;20029;-75
2022/05/30 07:40:48;;;;;;;4.95;1.23;;;12.40;88.30;;;;;;5030748;28;20202;-73
2022/05/30 07:43:14;;;;;;;5.00;1.13;;;12.40;89.90;;;;;;5049593;28;20032;-73
2022/05/30 07:45:40;;;;;;;4.93;1.20;;;12.40;87.50;;;;;;5031734;28;20032;-75
2022/05/30 07:48:07;;;;;;;4.63;1.00;;;12.40;86.90;;;;;;5031807;28;20033;-71
2022/05/30 07:50:34;;;;;;;2.42;0.88;;;12.50;85.80;;;;;;5049281;28;20394;-71
2022/05/30 07:53:00;;;;;;;5.82;1.20;;;12.70;85.20;;;;;;5049325;28;20041;-70
2022/05/30 07:55:26;;;;;;;4.50;1.30;;;12.90;87.30;;;;;;5031495;28;20501;-73
2022/05/30 07:57:52;;;;;;;3.40;0.95;;;13.00;84.50;;;;;;5049523;28;20471;-70
2022/05/30 08:00:23;;;;;;;4.10;1.00;;;13.20;86.20;;;;;;5031244;28;20470;-74
2022/05/30 08:02:49;;;;;;;3.75;0.90;;;13.30;84.50;;;;;;5049864;28;20821;-72
2022/05/30 08:05:17;;;;;;;3.45;1.48;;;13.30;81.40;;;;;;5047853;28;20753;-72
2022/05/30 08:07:44;;;;;;;3.65;1.02;;;13.40;82.30;;;;;;5031107;28;20037;-74
2022/05/30 08:10:11;;;;;;;2.53;0.65;;;13.50;81.10;;;;;;5048896;28;20510;-73
2022/05/30 08:12:37;;;;;;;4.70;0.98;;;13.70;76.60;;;;;;5049305;28;20068;-74
2022/05/30 08:15:03;;;;;;;4.32;1.05;;;13.70;75.20;;;;;;5031816;28;20083;-73
2022/05/30 08:17:29;;;;;;;3.28;0.75;;;13.70;77.20;;;;;;5049479;28;20037;-72
2022/05/30 08:19:56;;;;;;;5.57;0.90;;;13.80;77.30;;;;;;5048957;28;20660;-72
2022/05/30 08:22:22;;;;;;;6.43;1.15;;;13.90;72.80;;;;;;5030780;28;20178;-73
2022/05/30 08:24:51;;;;;;;5.43;0.80;;;14.00;71.80;;;;;;5030825;28;20044;-74
2022/05/30 08:27:16;;;;;;;2.90;0.67;;;14.00;72.10;;;;;;5050500;28;20032;-73
2022/05/30 08:29:42;;;;;;;4.10;1.02;;;14.10;73.70;;;;;;5069396;28;20024;-72
2022/05/30 08:32:09;;;;;;;4.38;0.70;;;14.10;72.50;;;;;;5068919;28;20123;-73
2022/05/30 08:34:39;;;;;;;5.88;0.90;;;14.00;72.10;;;;;;5050633;28;20599;-73
2022/05/30 08:37:07;;;;;;;6.85;1.00;;;13.80;72.00;;;;;;5067485;28;20040;-70
2022/05/30 08:42:25;;;;;;;4.40;0.98;;;13.70;73.10;;;;;;5069046;28;20104;-71
2022/05/30 08:44:51;;;;;;;3.90;0.70;;;13.80;75.20;;;;;;5042787;28;20478;-73
2022/05/30 08:47:44;;;;;;;2.83;0.60;;;14.10;74.80;;;;;;5029453;28;20075;-72
2022/05/30 08:50:35;;;;;;;3.33;0.52;;;14.40;71.50;;;;;;5011152;28;20136;-72
2022/05/30 08:53:10;;;;;;;3.83;0.60;;;14.60;69.50;;;;;;5010061;28;20475;-72
2022/05/30 08:55:41;;;;;;;4.10;0.82;;;14.70;72.30;;;;;;5010891;28;20045;-74
2022/05/30 08:58:15;;;;;;;4.47;0.70;;;14.80;69.50;;;;;;5028789;28;20034;-70
2022/05/30 09:00:52;;;;;;;3.33;0.73;;;14.80;70.40;;;;;;5010983;28;20033;-73
2022/05/30 09:03:43;;;;;;;3.17;0.75;;;14.80;68.20;;;;;;5029050;28;20037;-71
2022/05/30 09:06:26;;;;;;;4.45;0.90;;;14.80;68.50;;;;;;5028330;28;20111;-71
2022/05/30 09:08:55;;;;;;;2.70;0.63;;;15.00;72.90;;;;;;5028560;28;20029;-70
2022/05/30 09:11:28;;;;;;;3.65;0.80;;;15.30;71.00;;;;;;5029554;28;20029;-73
2022/05/30 09:13:58;;;;;;;5.70;0.70;;;15.30;69.70;;;;;;5029121;28;20147;-73
2022/05/30 09:16:30;;;;;;;3.42;0.77;;;15.20;69.30;;;;;;5010817;28;20052;-74
2022/05/30 09:18:57;;;;;;;3.72;0.70;;;15.00;70.00;;;;;;5029143;28;20033;-71
2022/05/30 09:21:26;;;;;;;5.45;0.88;;;14.70;70.90;;;;;;5029469;28;20476;-72
2022/05/30 09:23:52;;;;;;;4.00;1.00;;;14.70;73.40;;;;;;5011636;28;20433;-71
2022/05/30 09:26:33;;;;;;;5.50;1.02;;;14.60;74.80;;;;;;5029123;28;20056;-72
2022/05/30 09:29:36;;;;;;;4.15;1.02;;;14.60;74.10;;;;;;5029303;28;20079;-74
2022/05/30 09:32:09;;;;;;;3.25;0.82;;;14.50;74.60;;;;;;5021623;28;20042;-75
2022/05/30 09:34:45;;;;;;;4.15;0.88;;;14.40;74.30;;;;;;5038226;28;20029;-71
2022/05/30 09:37:24;;;;;;;5.80;0.95;;;14.30;72.40;;;;;;5047373;28;20060;-72
2022/05/30 09:39:50;;;;;;;5.97;0.88;;;14.40;74.90;;;;;;5048369;28;20088;-74
2022/05/30 09:42:37;;;;;;;3.75;0.73;;;14.50;73.00;;;;;;5048428;28;20443;-71
2022/05/30 09:45:07;;;;;;;3.05;0.80;;;14.60;73.10;;;;;;5047630;28;20033;-72
2022/05/30 09:47:34;;;;;;;4.13;0.98;;;14.80;70.20;;;;;;5047781;28;20029;-71
2022/05/30 09:50:13;;;;;;;3.65;0.70;;;15.00;73.00;;;;;;5048212;28;20029;-76
2022/05/30 09:52:40;;;;;;;2.65;0.80;;;15.00;69.20;;;;;;5048852;28;20033;-72
2022/05/30 09:55:33;;;;;;;4.43;1.10;;;15.00;70.50;;;;;;5048521;28;20791;-72
2022/05/30 09:58:00;;;;;;;6.63;0.90;;;15.10;69.60;;;;;;5047578;28;20032;-73
2022/05/30 10:00:49;;;;;;;3.03;0.85;;;15.20;69.40;;;;;;5048516;28;20033;-76
2022/05/30 10:03:29;;;;;;;3.22;0.80;;;15.20;69.60;;;;;;5047690;28;20501;-74
2022/05/30 10:06:18;;;;;;;2.03;0.60;;;15.20;71.40;;;;;;5051174;28;20033;-74
2022/05/30 10:08:46;;;;;;;2.67;0.70;;;15.20;69.60;;;;;;5052628;28;20037;-73
2022/05/30 10:11:32;;;;;;;3.83;0.85;;;15.30;70.80;;;;;;5050898;28;20041;-73
2022/05/30 10:13:59;;;;;;;3.58;0.77;;;15.40;71.70;;;;;;5054468;28;20482;-73
2022/05/30 10:16:33;;;;;;;2.47;0.70;;;15.80;69.20;;;;;;5054424;28;20422;-73
2022/05/30 10:19:05;;;;;;;2.78;0.80;;;16.20;70.80;;;;;;5052336;28;20033;-70
2022/05/30 10:28:20;;;;;;;4.28;0.98;;;16.20;67.90;;;;;;5063194;28;20085;-77
2022/05/30 10:31:05;;;;;;;5.43;0.80;;;15.70;67.80;;;;;;5072470;28;20049;-71
2022/05/30 10:33:43;;;;;;;4.05;1.20;;;15.40;70.30;;;;;;5071825;28;20040;-74
2022/05/30 10:36:21;;;;;;;5.53;1.10;;;15.20;71.40;;;;;;5053687;28;20123;-73
2022/05/30 10:39:13;;;;;;;4.63;0.80;;;15.10;70.60;;;;;;5071539;28;20028;-75
2022/05/30 10:41:47;;;;;;;4.80;0.80;;;15.10;70.40;;;;;;5071121;28;20029;-72
2022/05/30 10:44:37;;;;;;;4.90;1.02;;;15.00;70.60;;;;;;5071162;28;20124;-72
2022/05/30 10:47:23;;;;;;;6.55;1.17;;;15.10;72.00;;;;;;5052991;28;20044;-76
2022/05/30 10:49:58;;;;;;;3.40;0.80;;;15.00;72.20;;;;;;5071183;28;20107;-73
2022/05/30 10:52:26;;;;;;;3.05;0.80;;;15.00;71.80;;;;;;5069124;28;20024;-72
2022/05/30 10:55:08;;;;;;;2.58;0.70;;;15.00;72.60;;;;;;5070547;28;20024;-75
2022/05/30 10:57:47;;;;;;;3.70;0.95;;;15.00;74.30;;;;;;5052793;28;20544;-73
2022/05/30 11:00:23;;;;;;;3.28;0.90;;;15.00;73.40;;;;;;5070915;28;20032;-76
2022/05/30 11:03:05;;;;;;;5.50;1.20;;;15.00;72.90;;;;;;5071167;28;20043;-72
2022/05/30 11:05:51;;;;;;;5.55;1.10;;;14.90;73.30;;;;;;5070644;28;20043;-76
2022/05/30 11:08:27;;;;;;;2.78;0.75;;;14.90;72.90;;;;;;5053079;28;20131;-71
2022/05/30 11:11:04;;;;;;;5.78;0.82;;;14.90;73.30;;;;;;5070688;28;20029;-73
2022/05/30 11:13:52;;;;;;;3.83;0.80;;;14.80;71.70;;;;;;5070408;28;20055;-77
2022/05/30 11:16:39;;;;;;;5.55;1.40;;;14.80;71.50;;;;;;5069479;28;20033;-73
2022/05/30 11:19:08;;;;;;;2.28;0.77;;;14.90;71.00;;;;;;5052272;28;20098;-75
2022/05/30 11:22:03;;;;;;;3.55;1.00;;;15.00;73.60;;;;;;5052980;28;20044;-71
2022/05/30 11:24:31;;;;;;;4.43;1.00;;;15.10;71.30;;;;;;5070844;28;20486;-74
2022/05/30 11:27:37;;;;;;;5.07;1.10;;;15.30;72.40;;;;;;5070827;28;20024;-73
2022/05/30 11:30:05;;;;;;;4.32;1.00;;;15.40;70.40;;;;;;5039031;28;20059;-72
2022/05/30 11:32:44;;;;;;;4.17;0.87;;;15.50;71.20;;;;;;5069864;28;20072;-71
2022/05/30 11:35:32;;;;;;;5.07;1.00;;;15.70;71.70;;;;;;5070419;28;20033;-72
2022/05/30 11:38:04;;;;;;;3.90;1.17;;;16.00;70.70;;;;;;5052728;28;20055;-71
2022/05/30 11:41:06;;;;;;;4.13;1.23;;;16.30;72.70;;;;;;5064269;28;20129;-73
2022/05/30 11:44:09;;;;;;;4.25;0.80;;;16.30;69.40;;;;;;5050417;28;20175;-72
2022/05/30 11:46:50;;;;;;;2.90;0.80;;;16.10;68.30;;;;;;5050602;28;20773;-73
2022/05/30 11:49:30;;;;;;;3.47;0.98;;;15.80;71.20;;;;;;5032651;28;20021;-71
2022/05/30 11:52:31;;;;;;;4.28;0.80;;;15.60;69.10;;;;;;5032943;28;20132;-71
2022/05/30 11:55:24;;;;;;;5.70;1.30;;;15.50;70.30;;;;;;5032984;28;20044;-74
2022/05/30 11:57:56;;;;;;;3.50;0.88;;;15.60;71.30;;;;;;5032319;28;20029;-75
2022/05/30 12:00:42;;;;;;;3.35;0.82;;;15.60;70.20;;;;;;5049985;28;20025;-72
2022/05/30 12:03:10;;;;;;;7.53;1.00;;;15.60;70.50;;;;;;5050009;28;20037;-73
2022/05/30 12:06:24;;;;;;;7.03;1.10;;;15.60;71.20;;;;;;5050127;28;20025;-74
2022/05/30 12:09:27;;;;;;;5.40;0.98;;;15.60;70.30;;;;;;5050147;28;20315;-74
2022/05/30 12:12:05;;;;;;;3.53;0.80;;;15.60;73.20;;;;;;5050895;28;20053;-75
2022/05/30 12:14:53;;;;;;;3.35;1.00;;;15.70;72.10;;;;;;5032823;28;20059;-73
2022/05/30 12:23:47;;;;;;;3.92;1.10;;;15.50;71.90;;;;;;5033105;28;20028;-72
2022/05/30 12:26:04;;;;;;;2.92;0.95;;;15.40;69.70;;;;;;5030055;28;20083;-73
2022/05/30 12:28:34;;;;;;;3.88;1.13;;;15.40;71.20;;;;;;5028809;28;20033;-81
2022/05/30 12:31:03;;;;;;;4.15;1.10;;;15.40;71.50;;;;;;5030721;28;20057;-72
2022/05/30 12:33:29;;;;;;;2.58;0.80;;;15.40;72.70;;;;;;5011945;28;20042;-74
2022/05/30 12:36:16;;;;;;;4.80;0.93;;;15.40;72.00;;;;;;5031028;28;20036;-76
2022/05/30 12:39:00;;;;;;;4.00;1.10;;;15.40;70.90;;;;;;5020388;28;20069;-75
2022/05/30 12:41:52;;;;;;;3.78;0.90;;;15.30;70.50;;;;;;5028303;28;20425;-75
2022/05/30 12:44:51;;;;;;;3.17;0.88;;;15.30;73.70;;;;;;5029708;28;20068;-75
2022/05/30 12:47:27;;;;;;;4.60;1.00;;;15.30;73.10;;;;;;4990227;28;20051;-73
2022/05/30 12:50:33;;;;;;;8.45;1.08;;;15.30;73.60;;;;;;5011706;28;20053;-73
2022/05/30 12:53:02;;;;;;;5.38;1.27;;;15.30;72.80;;;;;;5017846;28;20058;-75
2022/05/30 12:55:41;;;;;;;2.65;0.90;;;15.20;73.80;;;;;;5027650;28;20051;-72
2022/05/30 12:58:10;;;;;;;4.07;1.00;;;15.20;73.80;;;;;;5028263;28;20075;-73
2022/05/30 13:00:42;;;;;;;4.95;0.85;;;15.30;72.50;;;;;;5027668;28;20033;-80
2022/05/30 13:03:23;;;;;;;3.20;1.15;;;15.40;73.20;;;;;;5011357;28;20037;-75
2022/05/30 13:06:06;;;;;;;4.60;1.10;;;15.40;74.80;;;;;;5028797;28;20029;-75
2022/05/30 13:08:51;;;;;;;3.92;0.90;;;15.40;73.90;;;;;;5011365;28;20033;-75
2022/05/30 13:11:32;;;;;;;4.95;1.00;;;15.70;72.50;;;;;;5029774;28;20052;-72
2022/05/30 13:14:13;;;;;;;3.08;1.10;;;15.80;71.00;;;;;;5029292;28;20045;-74
2022/05/30 13:16:42;;;;;;;3.25;1.02;;;15.80;69.50;;;;;;5029045;28;20041;-72
2022/05/30 13:19:14;;;;;;;3.88;0.88;;;15.90;70.40;;;;;;5029728;28;20044;-73
2022/05/30 13:21:44;;;;;;;4.68;1.10;;;15.90;68.30;;;;;;5029626;28;20033;-72
2022/05/30 13:24:34;;;;;;;3.38;0.90;;;15.70;71.60;;;;;;5028502;28;20079;-74
2022/05/30 13:27:00;;;;;;;;;;;15.70;71.90;;;;;;5030085;28;20031;-78
2022/05/30 13:29:44;;;;;;;3.13;1.00;;;15.60;72.60;;;;;;5029626;28;19909;-75
2022/05/30 13:32:13;;;;;;;6.00;1.25;;;15.60;71.60;;;;;;5030075;28;20483;-73
2022/05/30 13:34:48;;;;;;;4.45;0.80;;;15.70;71.10;;;;;;5029128;28;20037;-71
2022/05/30 13:37:29;;;;;;;4.00;1.10;;;15.80;71.10;;;;;;5030041;28;20036;-73
2022/05/30 13:40:01;;;;;;;4.50;0.90;;;16.10;71.90;;;;;;5031288;28;20045;-75
2022/05/30 13:42:52;;;;;;;4.65;1.00;;;16.30;66.90;;;;;;5042313;28;20025;-72